Aviation Digital Data Service (ADDS)

Output produced by METARs form (2219 UTC 25 April 2019)
found at http://aviationweather.gov/metar/data/
 
TAF EDDP 251700Z 2518/2618 09009KT CAVOK 
     BECMG 2601/2603 19007KT 
     BECMG 2605/2607 29011KT